sensor_id;sensor_type;location;lat;lon;timestamp;P1;durP1;ratioP1;P2;durP2;ratioP2
61096;SDS011;46977;50.936;6.908;2023-07-28T00:00:17;0.93;;;0.30;;
61096;SDS011;46977;50.936;6.908;2023-07-28T00:03:19;2.53;;;0.30;;
61096;SDS011;46977;50.936;6.908;2023-07-28T00:06:21;0.30;;;0.20;;
61096;SDS011;46977;50.936;6.908;2023-07-28T00:09:24;0.57;;;0.30;;
61096;SDS011;46977;50.936;6.908;2023-07-28T00:12:26;1.33;;;0.32;;
61096;SDS011;46977;50.936;6.908;2023-07-28T00:15:30;0.35;;;0.30;;
61096;SDS011;46977;50.936;6.908;2023-07-28T00:18:32;0.30;;;0.30;;
61096;SDS011;46977;50.936;6.908;2023-07-28T00:21:34;0.30;;;0.30;;
61096;SDS011;46977;50.936;6.908;2023-07-28T00:24:37;1.10;;;0.40;;
61096;SDS011;46977;50.936;6.908;2023-07-28T00:27:39;0.95;;;0.30;;
61096;SDS011;46977;50.936;6.908;2023-07-28T00:30:43;2.65;;;0.35;;
61096;SDS011;46977;50.936;6.908;2023-07-28T00:33:45;1.33;;;0.30;;
61096;SDS011;46977;50.936;6.908;2023-07-28T00:36:48;1.15;;;0.38;;
61096;SDS011;46977;50.936;6.908;2023-07-28T00:39:50;0.35;;;0.30;;
61096;SDS011;46977;50.936;6.908;2023-07-28T00:42:52;0.32;;;0.32;;
61096;SDS011;46977;50.936;6.908;2023-07-28T00:45:56;1.35;;;0.30;;
61096;SDS011;46977;50.936;6.908;2023-07-28T00:48:59;0.30;;;0.30;;
61096;SDS011;46977;50.936;6.908;2023-07-28T00:52:03;1.05;;;0.30;;
61096;SDS011;46977;50.936;6.908;2023-07-28T00:55:06;0.30;;;0.30;;
61096;SDS011;46977;50.936;6.908;2023-07-28T00:58:09;0.47;;;0.20;;
61096;SDS011;46977;50.936;6.908;2023-07-28T01:01:12;0.52;;;0.30;;
61096;SDS011;46977;50.936;6.908;2023-07-28T01:04:15;0.50;;;0.40;;
61096;SDS011;46977;50.936;6.908;2023-07-28T01:07:20;0.63;;;0.30;;
61096;SDS011;46977;50.936;6.908;2023-07-28T01:10:28;1.50;;;0.32;;
61096;SDS011;46977;50.936;6.908;2023-07-28T01:13:33;0.25;;;0.22;;
61096;SDS011;46977;50.936;6.908;2023-07-28T01:16:37;0.57;;;0.20;;
61096;SDS011;46977;50.936;6.908;2023-07-28T01:19:40;1.33;;;0.20;;
61096;SDS011;46977;50.936;6.908;2023-07-28T01:22:57;0.20;;;0.20;;
61096;SDS011;46977;50.936;6.908;2023-07-28T01:26:09;1.25;;;0.30;;
61096;SDS011;46977;50.936;6.908;2023-07-28T01:29:13;0.20;;;0.20;;
61096;SDS011;46977;50.936;6.908;2023-07-28T01:32:17;0.20;;;0.20;;
61096;SDS011;46977;50.936;6.908;2023-07-28T01:35:19;0.73;;;0.20;;
61096;SDS011;46977;50.936;6.908;2023-07-28T01:38:21;0.13;;;0.13;;
61096;SDS011;46977;50.936;6.908;2023-07-28T01:41:24;0.73;;;0.20;;
61096;SDS011;46977;50.936;6.908;2023-07-28T01:44:27;0.57;;;0.57;;
61096;SDS011;46977;50.936;6.908;2023-07-28T01:47:33;0.95;;;0.10;;
61096;SDS011;46977;50.936;6.908;2023-07-28T01:50:36;0.10;;;0.10;;
61096;SDS011;46977;50.936;6.908;2023-07-28T01:53:38;0.47;;;0.10;;
61096;SDS011;46977;50.936;6.908;2023-07-28T01:56:40;0.10;;;0.10;;
61096;SDS011;46977;50.936;6.908;2023-07-28T01:59:44;1.10;;;0.10;;
61096;SDS011;46977;50.936;6.908;2023-07-28T02:02:46;0.10;;;0.10;;
61096;SDS011;46977;50.936;6.908;2023-07-28T02:05:49;0.10;;;0.08;;
61096;SDS011;46977;50.936;6.908;2023-07-28T02:08:51;0.73;;;0.20;;
61096;SDS011;46977;50.936;6.908;2023-07-28T02:11:54;0.20;;;0.10;;
61096;SDS011;46977;50.936;6.908;2023-07-28T02:14:57;0.68;;;0.13;;
61096;SDS011;46977;50.936;6.908;2023-07-28T02:18:00;0.45;;;0.10;;
61096;SDS011;46977;50.936;6.908;2023-07-28T02:21:03;0.10;;;0.10;;
61096;SDS011;46977;50.936;6.908;2023-07-28T02:24:05;0.63;;;0.28;;
61096;SDS011;46977;50.936;6.908;2023-07-28T02:27:08;0.10;;;0.10;;
61096;SDS011;46977;50.936;6.908;2023-07-28T02:30:11;0.00;;;0.00;;
61096;SDS011;46977;50.936;6.908;2023-07-28T02:33:14;0.10;;;0.10;;
61096;SDS011;46977;50.936;6.908;2023-07-28T02:36:16;0.03;;;0.03;;
61096;SDS011;46977;50.936;6.908;2023-07-28T02:39:18;0.10;;;0.10;;
61096;SDS011;46977;50.936;6.908;2023-07-28T02:42:22;0.30;;;0.20;;
61096;SDS011;46977;50.936;6.908;2023-07-28T02:45:28;0.65;;;0.10;;
61096;SDS011;46977;50.936;6.908;2023-07-28T02:48:30;0.15;;;0.10;;
61096;SDS011;46977;50.936;6.908;2023-07-28T02:51:33;0.15;;;0.10;;
61096;SDS011;46977;50.936;6.908;2023-07-28T02:54:36;0.80;;;0.10;;
61096;SDS011;46977;50.936;6.908;2023-07-28T02:57:38;0.45;;;0.20;;
61096;SDS011;46977;50.936;6.908;2023-07-28T03:00:43;0.17;;;0.13;;
61096;SDS011;46977;50.936;6.908;2023-07-28T03:03:48;0.85;;;0.10;;
61096;SDS011;46977;50.936;6.908;2023-07-28T03:06:52;0.20;;;0.10;;
61096;SDS011;46977;50.936;6.908;2023-07-28T03:09:54;0.52;;;0.30;;
61096;SDS011;46977;50.936;6.908;2023-07-28T03:12:58;0.60;;;0.20;;
61096;SDS011;46977;50.936;6.908;2023-07-28T03:16:03;0.20;;;0.20;;
61096;SDS011;46977;50.936;6.908;2023-07-28T03:19:06;0.15;;;0.15;;
61096;SDS011;46977;50.936;6.908;2023-07-28T03:22:08;0.38;;;0.20;;
61096;SDS011;46977;50.936;6.908;2023-07-28T03:25:12;0.47;;;0.20;;
61096;SDS011;46977;50.936;6.908;2023-07-28T03:28:14;0.17;;;0.15;;
61096;SDS011;46977;50.936;6.908;2023-07-28T03:31:18;0.95;;;0.32;;
61096;SDS011;46977;50.936;6.908;2023-07-28T03:34:20;0.38;;;0.22;;
61096;SDS011;46977;50.936;6.908;2023-07-28T03:37:24;0.20;;;0.20;;
61096;SDS011;46977;50.936;6.908;2023-07-28T03:40:26;0.20;;;0.20;;
61096;SDS011;46977;50.936;6.908;2023-07-28T03:43:30;0.20;;;0.20;;
61096;SDS011;46977;50.936;6.908;2023-07-28T03:46:34;0.30;;;0.20;;
61096;SDS011;46977;50.936;6.908;2023-07-28T03:49:36;0.20;;;0.10;;
61096;SDS011;46977;50.936;6.908;2023-07-28T03:52:39;0.20;;;0.20;;
61096;SDS011;46977;50.936;6.908;2023-07-28T03:55:41;1.20;;;0.22;;
61096;SDS011;46977;50.936;6.908;2023-07-28T03:58:43;0.40;;;0.30;;
61096;SDS011;46977;50.936;6.908;2023-07-28T04:01:47;0.80;;;0.22;;
61096;SDS011;46977;50.936;6.908;2023-07-28T04:04:52;0.10;;;0.10;;
61096;SDS011;46977;50.936;6.908;2023-07-28T04:07:55;1.98;;;0.73;;
61096;SDS011;46977;50.936;6.908;2023-07-28T04:10:57;0.40;;;0.40;;
61096;SDS011;46977;50.936;6.908;2023-07-28T04:14:00;0.30;;;0.20;;
61096;SDS011;46977;50.936;6.908;2023-07-28T04:17:03;0.52;;;0.20;;
61096;SDS011;46977;50.936;6.908;2023-07-28T04:20:08;0.20;;;0.20;;
61096;SDS011;46977;50.936;6.908;2023-07-28T04:23:11;0.20;;;0.20;;
61096;SDS011;46977;50.936;6.908;2023-07-28T04:26:15;0.55;;;0.13;;
61096;SDS011;46977;50.936;6.908;2023-07-28T04:29:18;0.57;;;0.10;;
61096;SDS011;46977;50.936;6.908;2023-07-28T04:32:22;0.88;;;0.10;;
61096;SDS011;46977;50.936;6.908;2023-07-28T04:35:26;0.10;;;0.10;;
61096;SDS011;46977;50.936;6.908;2023-07-28T04:38:34;0.10;;;0.10;;
61096;SDS011;46977;50.936;6.908;2023-07-28T04:41:37;0.17;;;0.17;;
61096;SDS011;46977;50.936;6.908;2023-07-28T04:44:40;0.20;;;0.20;;
61096;SDS011;46977;50.936;6.908;2023-07-28T04:47:44;0.20;;;0.20;;
61096;SDS011;46977;50.936;6.908;2023-07-28T04:50:47;0.65;;;0.10;;
61096;SDS011;46977;50.936;6.908;2023-07-28T04:53:59;0.10;;;0.10;;
61096;SDS011;46977;50.936;6.908;2023-07-28T04:57:05;0.10;;;0.10;;
61096;SDS011;46977;50.936;6.908;2023-07-28T05:00:10;0.35;;;0.10;;
61096;SDS011;46977;50.936;6.908;2023-07-28T05:03:15;0.20;;;0.20;;
61096;SDS011;46977;50.936;6.908;2023-07-28T05:06:38;0.38;;;0.20;;
61096;SDS011;46977;50.936;6.908;2023-07-28T05:09:40;0.95;;;0.20;;
61096;SDS011;46977;50.936;6.908;2023-07-28T05:12:43;0.10;;;0.10;;
61096;SDS011;46977;50.936;6.908;2023-07-28T05:15:45;0.65;;;0.10;;
61096;SDS011;46977;50.936;6.908;2023-07-28T05:19:00;0.10;;;0.00;;
61096;SDS011;46977;50.936;6.908;2023-07-28T05:22:22;0.35;;;0.10;;
61096;SDS011;46977;50.936;6.908;2023-07-28T05:25:28;0.17;;;0.10;;
61096;SDS011;46977;50.936;6.908;2023-07-28T05:28:33;0.10;;;0.10;;
61096;SDS011;46977;50.936;6.908;2023-07-28T05:31:37;0.10;;;0.10;;
61096;SDS011;46977;50.936;6.908;2023-07-28T05:34:48;1.35;;;0.20;;
61096;SDS011;46977;50.936;6.908;2023-07-28T05:37:50;0.43;;;0.10;;
61096;SDS011;46977;50.936;6.908;2023-07-28T05:40:55;0.43;;;0.10;;
61096;SDS011;46977;50.936;6.908;2023-07-28T05:43:58;0.38;;;0.20;;
61096;SDS011;46977;50.936;6.908;2023-07-28T05:47:01;0.40;;;0.40;;
61096;SDS011;46977;50.936;6.908;2023-07-28T05:50:05;0.60;;;0.20;;
61096;SDS011;46977;50.936;6.908;2023-07-28T05:53:08;0.10;;;0.10;;
61096;SDS011;46977;50.936;6.908;2023-07-28T05:56:11;0.45;;;0.10;;
61096;SDS011;46977;50.936;6.908;2023-07-28T05:59:13;1.50;;;0.10;;
61096;SDS011;46977;50.936;6.908;2023-07-28T06:02:16;0.10;;;0.10;;
61096;SDS011;46977;50.936;6.908;2023-07-28T06:05:24;0.30;;;0.10;;
61096;SDS011;46977;50.936;6.908;2023-07-28T06:08:26;0.10;;;0.10;;
61096;SDS011;46977;50.936;6.908;2023-07-28T06:11:30;0.00;;;0.00;;
61096;SDS011;46977;50.936;6.908;2023-07-28T06:14:32;0.10;;;0.10;;
61096;SDS011;46977;50.936;6.908;2023-07-28T06:17:37;0.00;;;0.00;;
61096;SDS011;46977;50.936;6.908;2023-07-28T06:20:42;0.10;;;0.10;;
61096;SDS011;46977;50.936;6.908;2023-07-28T06:23:45;0.10;;;0.10;;
61096;SDS011;46977;50.936;6.908;2023-07-28T06:26:47;0.10;;;0.10;;
61096;SDS011;46977;50.936;6.908;2023-07-28T06:29:50;0.20;;;0.00;;
61096;SDS011;46977;50.936;6.908;2023-07-28T06:32:52;0.00;;;0.00;;
61096;SDS011;46977;50.936;6.908;2023-07-28T06:35:56;0.30;;;0.10;;
61096;SDS011;46977;50.936;6.908;2023-07-28T06:38:59;0.13;;;0.10;;
61096;SDS011;46977;50.936;6.908;2023-07-28T06:42:01;0.28;;;0.10;;
61096;SDS011;46977;50.936;6.908;2023-07-28T06:45:04;0.10;;;0.10;;
61096;SDS011;46977;50.936;6.908;2023-07-28T06:48:07;0.00;;;0.00;;
61096;SDS011;46977;50.936;6.908;2023-07-28T06:51:11;0.10;;;0.10;;
61096;SDS011;46977;50.936;6.908;2023-07-28T06:54:16;0.10;;;0.10;;
61096;SDS011;46977;50.936;6.908;2023-07-28T06:57:18;0.25;;;0.17;;
61096;SDS011;46977;50.936;6.908;2023-07-28T07:00:22;0.65;;;0.20;;
61096;SDS011;46977;50.936;6.908;2023-07-28T07:03:25;0.20;;;0.10;;
61096;SDS011;46977;50.936;6.908;2023-07-28T07:06:29;0.20;;;0.20;;
61096;SDS011;46977;50.936;6.908;2023-07-28T07:09:31;0.52;;;0.28;;
61096;SDS011;46977;50.936;6.908;2023-07-28T07:12:33;0.50;;;0.30;;
61096;SDS011;46977;50.936;6.908;2023-07-28T07:15:36;0.73;;;0.22;;
61096;SDS011;46977;50.936;6.908;2023-07-28T07:18:38;0.38;;;0.32;;
61096;SDS011;46977;50.936;6.908;2023-07-28T07:21:42;0.65;;;0.30;;
61096;SDS011;46977;50.936;6.908;2023-07-28T07:24:46;0.68;;;0.30;;
61096;SDS011;46977;50.936;6.908;2023-07-28T07:27:49;0.82;;;0.55;;
61096;SDS011;46977;50.936;6.908;2023-07-28T07:30:51;1.10;;;0.40;;
61096;SDS011;46977;50.936;6.908;2023-07-28T07:33:53;1.67;;;0.63;;
61096;SDS011;46977;50.936;6.908;2023-07-28T07:36:58;0.63;;;0.57;;
61096;SDS011;46977;50.936;6.908;2023-07-28T07:40:03;1.60;;;0.75;;
61096;SDS011;46977;50.936;6.908;2023-07-28T07:43:07;0.65;;;0.50;;
61096;SDS011;46977;50.936;6.908;2023-07-28T07:46:10;1.88;;;0.95;;
61096;SDS011;46977;50.936;6.908;2023-07-28T07:49:12;1.52;;;0.70;;
61096;SDS011;46977;50.936;6.908;2023-07-28T07:52:16;0.70;;;0.70;;
61096;SDS011;46977;50.936;6.908;2023-07-28T07:55:18;1.85;;;0.90;;
61096;SDS011;46977;50.936;6.908;2023-07-28T07:58:21;2.53;;;1.05;;
61096;SDS011;46977;50.936;6.908;2023-07-28T08:01:23;2.92;;;1.08;;
61096;SDS011;46977;50.936;6.908;2023-07-28T08:04:26;2.58;;;1.20;;
61096;SDS011;46977;50.936;6.908;2023-07-28T08:07:31;0.88;;;0.88;;
61096;SDS011;46977;50.936;6.908;2023-07-28T08:10:33;1.85;;;1.20;;
61096;SDS011;46977;50.936;6.908;2023-07-28T08:13:36;4.80;;;1.30;;
61096;SDS011;46977;50.936;6.908;2023-07-28T08:16:38;1.27;;;1.10;;
61096;SDS011;46977;50.936;6.908;2023-07-28T08:19:40;3.17;;;1.27;;
61096;SDS011;46977;50.936;6.908;2023-07-28T08:22:44;4.15;;;0.90;;
61096;SDS011;46977;50.936;6.908;2023-07-28T08:25:46;4.00;;;0.95;;
61096;SDS011;46977;50.936;6.908;2023-07-28T08:28:51;1.17;;;0.90;;
61096;SDS011;46977;50.936;6.908;2023-07-28T08:31:55;0.98;;;0.90;;
61096;SDS011;46977;50.936;6.908;2023-07-28T08:34:57;1.95;;;1.05;;
61096;SDS011;46977;50.936;6.908;2023-07-28T08:38:01;7.18;;;1.38;;
61096;SDS011;46977;50.936;6.908;2023-07-28T08:41:03;8.63;;;2.40;;
61096;SDS011;46977;50.936;6.908;2023-07-28T08:44:14;7.57;;;2.08;;
61096;SDS011;46977;50.936;6.908;2023-07-28T08:51:16;6.88;;;2.00;;
61096;SDS011;46977;50.936;6.908;2023-07-28T08:58:29;3.95;;;1.77;;
61096;SDS011;46977;50.936;6.908;2023-07-28T09:01:40;2.60;;;1.50;;
61096;SDS011;46977;50.936;6.908;2023-07-28T09:04:49;3.67;;;1.15;;
61096;SDS011;46977;50.936;6.908;2023-07-28T09:07:56;4.28;;;1.10;;
61096;SDS011;46977;50.936;6.908;2023-07-28T09:11:26;1.00;;;0.80;;
61096;SDS011;46977;50.936;6.908;2023-07-28T09:14:29;5.00;;;1.15;;
61096;SDS011;46977;50.936;6.908;2023-07-28T09:17:32;1.27;;;0.70;;
61096;SDS011;46977;50.936;6.908;2023-07-28T09:20:43;2.88;;;0.70;;
61096;SDS011;46977;50.936;6.908;2023-07-28T09:23:46;0.70;;;0.70;;
61096;SDS011;46977;50.936;6.908;2023-07-28T09:26:50;1.20;;;0.50;;
61096;SDS011;46977;50.936;6.908;2023-07-28T09:29:53;15.02;;;1.17;;
61096;SDS011;46977;50.936;6.908;2023-07-28T09:32:58;1.73;;;0.70;;
61096;SDS011;46977;50.936;6.908;2023-07-28T09:36:07;1.90;;;0.70;;
61096;SDS011;46977;50.936;6.908;2023-07-28T09:39:11;3.08;;;0.60;;
61096;SDS011;46977;50.936;6.908;2023-07-28T09:42:15;1.80;;;0.80;;
61096;SDS011;46977;50.936;6.908;2023-07-28T09:45:18;1.20;;;0.80;;
61096;SDS011;46977;50.936;6.908;2023-07-28T09:48:38;3.45;;;1.13;;
61096;SDS011;46977;50.936;6.908;2023-07-28T09:51:41;1.45;;;0.90;;
61096;SDS011;46977;50.936;6.908;2023-07-28T09:54:46;2.72;;;0.80;;
61096;SDS011;46977;50.936;6.908;2023-07-28T09:57:55;1.65;;;0.68;;
61096;SDS011;46977;50.936;6.908;2023-07-28T10:01:01;2.30;;;0.70;;
61096;SDS011;46977;50.936;6.908;2023-07-28T10:04:04;1.02;;;0.80;;
61096;SDS011;46977;50.936;6.908;2023-07-28T10:07:07;1.02;;;0.65;;
61096;SDS011;46977;50.936;6.908;2023-07-28T10:10:10;1.13;;;0.70;;
61096;SDS011;46977;50.936;6.908;2023-07-28T10:13:20;1.80;;;0.60;;
61096;SDS011;46977;50.936;6.908;2023-07-28T10:16:29;0.60;;;0.60;;
61096;SDS011;46977;50.936;6.908;2023-07-28T10:19:33;0.65;;;0.60;;
61096;SDS011;46977;50.936;6.908;2023-07-28T10:22:42;1.00;;;0.70;;
61096;SDS011;46977;50.936;6.908;2023-07-28T10:25:45;6.20;;;0.88;;
61096;SDS011;46977;50.936;6.908;2023-07-28T10:28:50;2.28;;;0.90;;
61096;SDS011;46977;50.936;6.908;2023-07-28T10:31:53;0.80;;;0.60;;
61096;SDS011;46977;50.936;6.908;2023-07-28T10:34:58;0.73;;;0.60;;
61096;SDS011;46977;50.936;6.908;2023-07-28T10:41:35;0.63;;;0.60;;
61096;SDS011;46977;50.936;6.908;2023-07-28T10:44:39;0.60;;;0.60;;
61096;SDS011;46977;50.936;6.908;2023-07-28T10:47:43;1.95;;;0.88;;
61096;SDS011;46977;50.936;6.908;2023-07-28T10:50:46;1.55;;;0.70;;
61096;SDS011;46977;50.936;6.908;2023-07-28T10:53:49;1.25;;;0.70;;
61096;SDS011;46977;50.936;6.908;2023-07-28T10:56:54;1.25;;;0.70;;
61096;SDS011;46977;50.936;6.908;2023-07-28T11:00:00;1.52;;;0.90;;
61096;SDS011;46977;50.936;6.908;2023-07-28T11:03:03;1.75;;;0.82;;
61096;SDS011;46977;50.936;6.908;2023-07-28T11:06:05;1.23;;;0.68;;
61096;SDS011;46977;50.936;6.908;2023-07-28T11:09:08;0.70;;;0.70;;
61096;SDS011;46977;50.936;6.908;2023-07-28T11:12:11;0.80;;;0.60;;
61096;SDS011;46977;50.936;6.908;2023-07-28T11:15:16;1.23;;;0.68;;
61096;SDS011;46977;50.936;6.908;2023-07-28T11:18:19;1.23;;;0.70;;
61096;SDS011;46977;50.936;6.908;2023-07-28T11:21:24;0.77;;;0.63;;
61096;SDS011;46977;50.936;6.908;2023-07-28T11:24:28;2.25;;;0.70;;
61096;SDS011;46977;50.936;6.908;2023-07-28T11:27:31;1.10;;;0.80;;
61096;SDS011;46977;50.936;6.908;2023-07-28T11:30:36;2.47;;;0.80;;
61096;SDS011;46977;50.936;6.908;2023-07-28T11:33:40;1.92;;;0.88;;
61096;SDS011;46977;50.936;6.908;2023-07-28T11:36:47;3.90;;;1.35;;
61096;SDS011;46977;50.936;6.908;2023-07-28T11:49:17;4.13;;;1.00;;
61096;SDS011;46977;50.936;6.908;2023-07-28T11:52:29;3.03;;;0.88;;
61096;SDS011;46977;50.936;6.908;2023-07-28T11:55:33;1.92;;;0.88;;
61096;SDS011;46977;50.936;6.908;2023-07-28T11:58:36;1.00;;;0.90;;
61096;SDS011;46977;50.936;6.908;2023-07-28T12:01:54;1.75;;;0.85;;
61096;SDS011;46977;50.936;6.908;2023-07-28T12:05:01;1.30;;;0.73;;
61096;SDS011;46977;50.936;6.908;2023-07-28T12:08:06;1.42;;;1.00;;
61096;SDS011;46977;50.936;6.908;2023-07-28T12:11:14;2.22;;;1.00;;
61096;SDS011;46977;50.936;6.908;2023-07-28T12:14:39;1.15;;;0.98;;
61096;SDS011;46977;50.936;6.908;2023-07-28T12:17:59;2.10;;;1.00;;
61096;SDS011;46977;50.936;6.908;2023-07-28T12:21:07;1.10;;;1.05;;
61096;SDS011;46977;50.936;6.908;2023-07-28T12:24:09;1.45;;;1.00;;
61096;SDS011;46977;50.936;6.908;2023-07-28T12:27:12;2.10;;;1.10;;
61096;SDS011;46977;50.936;6.908;2023-07-28T12:30:15;3.20;;;1.20;;
61096;SDS011;46977;50.936;6.908;2023-07-28T12:33:18;1.80;;;1.15;;
61096;SDS011;46977;50.936;6.908;2023-07-28T12:36:24;2.03;;;1.25;;
61096;SDS011;46977;50.936;6.908;2023-07-28T12:39:47;1.10;;;1.00;;
61096;SDS011;46977;50.936;6.908;2023-07-28T12:42:53;1.42;;;0.90;;
61096;SDS011;46977;50.936;6.908;2023-07-28T12:45:59;0.85;;;0.82;;
61096;SDS011;46977;50.936;6.908;2023-07-28T12:49:05;3.17;;;1.30;;
61096;SDS011;46977;50.936;6.908;2023-07-28T12:52:10;2.05;;;1.00;;
61096;SDS011;46977;50.936;6.908;2023-07-28T12:55:20;2.13;;;1.15;;
61096;SDS011;46977;50.936;6.908;2023-07-28T12:58:23;2.17;;;1.40;;
61096;SDS011;46977;50.936;6.908;2023-07-28T13:01:28;3.08;;;1.40;;
61096;SDS011;46977;50.936;6.908;2023-07-28T13:04:30;5.70;;;1.60;;
61096;SDS011;46977;50.936;6.908;2023-07-28T13:07:34;4.30;;;1.23;;
61096;SDS011;46977;50.936;6.908;2023-07-28T13:10:40;3.58;;;1.63;;
61096;SDS011;46977;50.936;6.908;2023-07-28T13:13:45;1.02;;;0.93;;
61096;SDS011;46977;50.936;6.908;2023-07-28T13:16:47;1.75;;;1.20;;
61096;SDS011;46977;50.936;6.908;2023-07-28T13:19:50;2.28;;;1.40;;
61096;SDS011;46977;50.936;6.908;2023-07-28T13:22:53;1.73;;;1.38;;
61096;SDS011;46977;50.936;6.908;2023-07-28T13:25:56;2.42;;;1.30;;
61096;SDS011;46977;50.936;6.908;2023-07-28T13:28:58;1.73;;;1.10;;
61096;SDS011;46977;50.936;6.908;2023-07-28T13:32:03;4.32;;;2.05;;
61096;SDS011;46977;50.936;6.908;2023-07-28T13:35:06;1.92;;;1.00;;
61096;SDS011;46977;50.936;6.908;2023-07-28T13:38:11;1.98;;;1.27;;
61096;SDS011;46977;50.936;6.908;2023-07-28T13:41:17;2.10;;;1.10;;
61096;SDS011;46977;50.936;6.908;2023-07-28T13:44:22;0.82;;;0.60;;
61096;SDS011;46977;50.936;6.908;2023-07-28T13:47:33;2.25;;;0.90;;
61096;SDS011;46977;50.936;6.908;2023-07-28T13:50:35;3.08;;;1.20;;
61096;SDS011;46977;50.936;6.908;2023-07-28T13:53:40;2.67;;;0.90;;
61096;SDS011;46977;50.936;6.908;2023-07-28T13:56:43;4.47;;;1.50;;
61096;SDS011;46977;50.936;6.908;2023-07-28T13:59:49;1.63;;;1.10;;
61096;SDS011;46977;50.936;6.908;2023-07-28T14:02:51;1.02;;;0.80;;
61096;SDS011;46977;50.936;6.908;2023-07-28T14:05:56;3.38;;;1.20;;
61096;SDS011;46977;50.936;6.908;2023-07-28T14:09:00;0.98;;;0.85;;
61096;SDS011;46977;50.936;6.908;2023-07-28T14:12:08;1.00;;;0.80;;
61096;SDS011;46977;50.936;6.908;2023-07-28T14:15:16;2.15;;;0.70;;
61096;SDS011;46977;50.936;6.908;2023-07-28T14:18:18;1.23;;;0.60;;
61096;SDS011;46977;50.936;6.908;2023-07-28T14:25:19;1.38;;;0.40;;
61096;SDS011;46977;50.936;6.908;2023-07-28T14:28:22;1.95;;;0.30;;
61096;SDS011;46977;50.936;6.908;2023-07-28T14:31:25;1.70;;;0.38;;
61096;SDS011;46977;50.936;6.908;2023-07-28T14:34:27;1.20;;;0.30;;
61096;SDS011;46977;50.936;6.908;2023-07-28T14:37:30;0.73;;;0.52;;
61096;SDS011;46977;50.936;6.908;2023-07-28T14:40:34;0.30;;;0.30;;
61096;SDS011;46977;50.936;6.908;2023-07-28T14:43:39;0.25;;;0.25;;
61096;SDS011;46977;50.936;6.908;2023-07-28T14:46:42;0.20;;;0.20;;
61096;SDS011;46977;50.936;6.908;2023-07-28T14:49:44;3.60;;;0.20;;
61096;SDS011;46977;50.936;6.908;2023-07-28T14:52:46;1.58;;;0.20;;
61096;SDS011;46977;50.936;6.908;2023-07-28T14:55:50;1.45;;;0.30;;
61096;SDS011;46977;50.936;6.908;2023-07-28T14:58:52;0.43;;;0.35;;
61096;SDS011;46977;50.936;6.908;2023-07-28T15:01:57;1.00;;;0.63;;
61096;SDS011;46977;50.936;6.908;2023-07-28T15:04:59;0.30;;;0.30;;
61096;SDS011;46977;50.936;6.908;2023-07-28T15:08:03;2.33;;;0.40;;
61096;SDS011;46977;50.936;6.908;2023-07-28T15:11:07;0.50;;;0.40;;
61096;SDS011;46977;50.936;6.908;2023-07-28T15:14:09;0.40;;;0.30;;
61096;SDS011;46977;50.936;6.908;2023-07-28T15:17:12;1.52;;;0.70;;
61096;SDS011;46977;50.936;6.908;2023-07-28T15:20:14;1.90;;;0.40;;
61096;SDS011;46977;50.936;6.908;2023-07-28T15:23:22;0.93;;;0.40;;
61096;SDS011;46977;50.936;6.908;2023-07-28T15:26:25;3.22;;;0.50;;
61096;SDS011;46977;50.936;6.908;2023-07-28T15:29:28;2.67;;;0.35;;
61096;SDS011;46977;50.936;6.908;2023-07-28T15:32:30;1.00;;;0.38;;
61096;SDS011;46977;50.936;6.908;2023-07-28T15:35:32;1.50;;;0.40;;
61096;SDS011;46977;50.936;6.908;2023-07-28T15:38:35;3.67;;;2.15;;
61096;SDS011;46977;50.936;6.908;2023-07-28T15:41:38;2.33;;;0.40;;
61096;SDS011;46977;50.936;6.908;2023-07-28T15:44:41;1.83;;;0.40;;
61096;SDS011;46977;50.936;6.908;2023-07-28T15:47:44;2.05;;;0.28;;
61096;SDS011;46977;50.936;6.908;2023-07-28T15:50:46;2.20;;;0.70;;
61096;SDS011;46977;50.936;6.908;2023-07-28T15:53:49;0.95;;;0.32;;
61096;SDS011;46977;50.936;6.908;2023-07-28T15:56:55;1.10;;;0.40;;
61096;SDS011;46977;50.936;6.908;2023-07-28T15:59:59;0.40;;;0.30;;
61096;SDS011;46977;50.936;6.908;2023-07-28T16:03:01;1.33;;;0.60;;
61096;SDS011;46977;50.936;6.908;2023-07-28T16:06:03;2.50;;;0.88;;
61096;SDS011;46977;50.936;6.908;2023-07-28T16:09:06;1.67;;;0.90;;
61096;SDS011;46977;50.936;6.908;2023-07-28T16:12:19;1.30;;;0.70;;
61096;SDS011;46977;50.936;6.908;2023-07-28T16:15:21;1.58;;;1.10;;
61096;SDS011;46977;50.936;6.908;2023-07-28T16:18:24;2.03;;;0.85;;
61096;SDS011;46977;50.936;6.908;2023-07-28T16:21:28;1.52;;;1.15;;
61096;SDS011;46977;50.936;6.908;2023-07-28T16:24:30;3.33;;;1.10;;
61096;SDS011;46977;50.936;6.908;2023-07-28T16:27:34;3.97;;;0.90;;
61096;SDS011;46977;50.936;6.908;2023-07-28T16:30:39;1.38;;;0.60;;
61096;SDS011;46977;50.936;6.908;2023-07-28T16:33:42;2.08;;;0.73;;
61096;SDS011;46977;50.936;6.908;2023-07-28T16:36:45;1.45;;;0.55;;
61096;SDS011;46977;50.936;6.908;2023-07-28T16:39:47;1.33;;;0.50;;
61096;SDS011;46977;50.936;6.908;2023-07-28T16:42:53;1.83;;;0.70;;
61096;SDS011;46977;50.936;6.908;2023-07-28T16:45:56;2.15;;;0.50;;
61096;SDS011;46977;50.936;6.908;2023-07-28T16:48:58;2.58;;;0.60;;
61096;SDS011;46977;50.936;6.908;2023-07-28T16:52:01;3.13;;;0.70;;
61096;SDS011;46977;50.936;6.908;2023-07-28T16:55:04;1.63;;;0.70;;
61096;SDS011;46977;50.936;6.908;2023-07-28T16:58:08;1.38;;;0.60;;
61096;SDS011;46977;50.936;6.908;2023-07-28T17:01:15;1.23;;;0.60;;
61096;SDS011;46977;50.936;6.908;2023-07-28T17:04:36;3.17;;;0.95;;
61096;SDS011;46977;50.936;6.908;2023-07-28T17:07:39;1.30;;;0.70;;
61096;SDS011;46977;50.936;6.908;2023-07-28T17:10:41;1.20;;;0.68;;
61096;SDS011;46977;50.936;6.908;2023-07-28T17:13:45;4.70;;;0.90;;
61096;SDS011;46977;50.936;6.908;2023-07-28T17:16:53;2.25;;;0.85;;
61096;SDS011;46977;50.936;6.908;2023-07-28T17:19:56;1.98;;;0.80;;
61096;SDS011;46977;50.936;6.908;2023-07-28T17:23:09;2.78;;;0.75;;
61096;SDS011;46977;50.936;6.908;2023-07-28T17:26:41;2.08;;;0.90;;
61096;SDS011;46977;50.936;6.908;2023-07-28T17:35:15;3.72;;;1.02;;
61096;SDS011;46977;50.936;6.908;2023-07-28T17:38:48;1.63;;;1.08;;
61096;SDS011;46977;50.936;6.908;2023-07-28T17:41:51;1.80;;;0.80;;
61096;SDS011;46977;50.936;6.908;2023-07-28T17:44:55;1.98;;;0.90;;
61096;SDS011;46977;50.936;6.908;2023-07-28T17:48:00;4.22;;;1.60;;
61096;SDS011;46977;50.936;6.908;2023-07-28T17:51:04;5.07;;;2.03;;
61096;SDS011;46977;50.936;6.908;2023-07-28T17:54:14;2.22;;;1.80;;
61096;SDS011;46977;50.936;6.908;2023-07-28T17:57:22;9.32;;;1.10;;
61096;SDS011;46977;50.936;6.908;2023-07-28T18:00:43;1.25;;;0.98;;
61096;SDS011;46977;50.936;6.908;2023-07-28T18:03:51;2.00;;;0.90;;
61096;SDS011;46977;50.936;6.908;2023-07-28T18:07:08;2.05;;;0.77;;
61096;SDS011;46977;50.936;6.908;2023-07-28T18:10:12;1.52;;;1.17;;
61096;SDS011;46977;50.936;6.908;2023-07-28T18:13:18;4.05;;;1.08;;
61096;SDS011;46977;50.936;6.908;2023-07-28T18:16:24;6.40;;;2.08;;
61096;SDS011;46977;50.936;6.908;2023-07-28T18:19:27;8.65;;;4.03;;
61096;SDS011;46977;50.936;6.908;2023-07-28T18:22:48;3.17;;;0.90;;
61096;SDS011;46977;50.936;6.908;2023-07-28T18:26:05;2.70;;;1.00;;
61096;SDS011;46977;50.936;6.908;2023-07-28T18:29:14;4.40;;;1.30;;
61096;SDS011;46977;50.936;6.908;2023-07-28T18:32:16;3.08;;;1.27;;
61096;SDS011;46977;50.936;6.908;2023-07-28T18:35:19;3.85;;;1.23;;
61096;SDS011;46977;50.936;6.908;2023-07-28T18:38:23;7.75;;;2.88;;
61096;SDS011;46977;50.936;6.908;2023-07-28T18:41:25;4.53;;;1.98;;
61096;SDS011;46977;50.936;6.908;2023-07-28T18:44:28;3.13;;;1.15;;
61096;SDS011;46977;50.936;6.908;2023-07-28T18:47:31;4.47;;;1.42;;
61096;SDS011;46977;50.936;6.908;2023-07-28T18:50:33;3.38;;;1.30;;
61096;SDS011;46977;50.936;6.908;2023-07-28T18:53:46;5.35;;;1.92;;
61096;SDS011;46977;50.936;6.908;2023-07-28T18:56:53;3.28;;;1.75;;
61096;SDS011;46977;50.936;6.908;2023-07-28T19:00:24;3.33;;;1.83;;
61096;SDS011;46977;50.936;6.908;2023-07-28T19:03:35;3.90;;;1.40;;